Time;durP1;ratioP1;P1;durP2;ratioP2;P2;SDS_P1;SDS_P2;PMS_P1;PMS_P2;Temp;Humidity;BMP_temperature;BMP_pressure;BME280_temperature;BME280_humidity;BME280_pressure;Samples;Min_cycle;Max_cycle;Signal;HPM_P1;HPM_P2
2023/05/10 00:01:14;;;;;;;;;;;13.90;99.90;;;;;;5093368;28;19987;-37
2023/05/10 00:03:42;;;;;;;;;;;13.90;99.90;;;;;;5092071;28;20085;-37
2023/05/10 00:06:09;;;;;;;;;;;13.90;99.90;;;;;;5092598;28;19970;-36
2023/05/10 00:08:35;;;;;;;;;;;13.80;99.90;;;;;;5071503;28;20035;-38
2023/05/10 00:11:02;;;;;;;;;;;13.80;99.90;;;;;;5092632;28;20365;-37
2023/05/10 00:13:29;;;;;;;;;;;13.80;99.90;;;;;;5093116;28;19940;-38
2023/05/10 00:15:55;;;;;;;;;;;13.80;99.90;;;;;;5075628;28;19945;-38
2023/05/10 00:18:22;;;;;;;;;;;13.80;99.90;;;;;;5092808;28;20127;-38
2023/05/10 00:20:50;;;;;;;;;;;13.70;99.90;;;;;;5092593;28;19984;-38
2023/05/10 00:23:17;;;;;;;;;;;13.70;99.90;;;;;;5073945;28;19948;-38
2023/05/10 00:25:43;;;;;;;;;;;13.60;99.90;;;;;;5091435;28;19953;-37
2023/05/10 00:28:10;;;;;;;;;;;13.70;99.90;;;;;;5072510;28;19942;-38
2023/05/10 00:30:37;;;;;;;;;;;13.70;99.90;;;;;;5071060;28;19965;-37
2023/05/10 00:33:03;;;;;;;;;;;13.70;99.90;;;;;;5074735;28;19994;-37
2023/05/10 00:35:30;;;;;;;;;;;13.60;99.90;;;;;;5092081;28;19982;-37
2023/05/10 00:37:58;;;;;;;;;;;13.60;99.90;;;;;;5092417;28;19998;-38
2023/05/10 00:40:25;;;;;;;;;;;13.60;99.90;;;;;;5093178;28;19944;-38
2023/05/10 00:42:52;;;;;;;;;;;13.60;99.90;;;;;;5073015;28;19975;-37
2023/05/10 00:45:19;;;;;;;;;;;13.60;99.90;;;;;;5091401;28;19958;-37
2023/05/10 00:47:45;;;;;;;;;;;13.60;99.90;;;;;;5074317;28;19942;-37
2023/05/10 00:50:12;;;;;;;;;;;13.60;99.90;;;;;;5074048;28;20428;-37
2023/05/10 00:52:38;;;;;;;;;;;13.60;99.90;;;;;;5093278;28;20447;-37
2023/05/10 00:55:07;;;;;;;;;;;13.60;99.90;;;;;;5092125;28;20441;-38
2023/05/10 00:57:34;;;;;;;;;;;13.60;99.90;;;;;;5092321;28;19940;-38
2023/05/10 01:00:01;;;;;;;;;;;13.60;99.90;;;;;;5074034;28;20021;-38
2023/05/10 01:02:27;;;;;;;;;;;13.60;99.90;;;;;;5071105;28;20030;-37
2023/05/10 01:04:54;;;;;;;;;;;13.60;99.90;;;;;;5092043;28;19969;-38
2023/05/10 01:07:20;;;;;;;;;;;13.60;99.90;;;;;;5072298;28;19990;-38
2023/05/10 01:09:47;;;;;;;;;;;13.60;99.90;;;;;;5091970;28;20368;-37
2023/05/10 01:12:15;;;;;;;;;;;13.60;99.90;;;;;;5073332;28;20035;-37
2023/05/10 01:14:42;;;;;;;;;;;13.60;99.90;;;;;;5074187;28;20037;-37
2023/05/10 01:17:09;;;;;;;;;;;13.60;99.90;;;;;;5092860;28;19989;-38
2023/05/10 01:19:37;;;;;;;;;;;13.60;99.90;;;;;;5073295;28;19993;-38
2023/05/10 01:22:06;;;;;;;;;;;13.60;99.90;;;;;;5091608;28;19954;-38
2023/05/10 01:24:50;;;;;;;;;;;13.60;99.90;;;;;;5073197;28;20007;-38
2023/05/10 01:27:32;;;;;;;;;;;13.60;99.90;;;;;;5073538;28;19941;-37
2023/05/10 01:30:02;;;;;;;;;;;13.60;99.90;;;;;;5091135;28;20391;-38
2023/05/10 01:32:32;;;;;;;;;;;13.50;99.90;;;;;;5091545;28;20321;-37
2023/05/10 01:35:00;;;;;;;;;;;13.50;99.90;;;;;;5053961;28;20421;-38
2023/05/10 01:37:30;;;;;;;;;;;13.50;99.90;;;;;;5070252;28;19985;-37
2023/05/10 01:39:59;;;;;;;;;;;13.50;99.90;;;;;;5073474;28;20024;-38
2023/05/10 01:42:26;;;;;;;;;;;13.50;99.90;;;;;;5090536;28;20007;-37
2023/05/10 01:44:56;;;;;;;;;;;13.50;99.90;;;;;;5091846;28;19960;-38
2023/05/10 01:47:25;;;;;;;;;;;13.50;99.90;;;;;;5073249;28;19939;-38
2023/05/10 01:49:54;;;;;;;;;;;13.50;99.90;;;;;;5073392;28;19939;-37
2023/05/10 01:52:23;;;;;;;;;;;13.50;99.90;;;;;;5071919;28;19971;-38
2023/05/10 01:54:50;;;;;;;;;;;13.40;99.90;;;;;;5073074;28;19943;-38
2023/05/10 01:57:16;;;;;;;;;;;13.50;99.90;;;;;;5088893;28;19941;-36
2023/05/10 01:59:44;;;;;;;;;;;13.50;99.90;;;;;;5086927;28;20014;-38
2023/05/10 02:02:11;;;;;;;;;;;13.50;99.90;;;;;;5091960;28;19985;-38
2023/05/10 02:04:38;;;;;;;;;;;13.40;99.90;;;;;;5071810;28;19952;-38
2023/05/10 02:07:06;;;;;;;;;;;13.50;99.90;;;;;;5069864;28;20392;-38
2023/05/10 02:09:33;;;;;;;;;;;13.40;99.90;;;;;;5069692;28;19942;-37
2023/05/10 02:11:59;;;;;;;;;;;13.40;99.90;;;;;;5073082;28;19944;-37
2023/05/10 02:14:26;;;;;;;;;;;13.40;99.90;;;;;;5073192;28;19939;-37
2023/05/10 02:16:53;;;;;;;;;;;13.40;99.90;;;;;;5074105;28;19940;-38
2023/05/10 02:19:19;;;;;;;;;;;13.40;99.90;;;;;;5089544;28;20464;-37
2023/05/10 02:21:46;;;;;;;;;;;13.40;99.90;;;;;;5091122;28;19985;-38
2023/05/10 02:24:14;;;;;;;;;;;13.40;99.90;;;;;;5071695;28;19941;-38
2023/05/10 02:26:41;;;;;;;;;;;13.40;99.90;;;;;;5074379;28;19943;-38
2023/05/10 02:29:07;;;;;;;;;;;13.40;99.90;;;;;;5089625;28;19992;-38
2023/05/10 02:31:34;;;;;;;;;;;13.40;99.90;;;;;;5068793;28;19989;-38
2023/05/10 02:34:01;;;;;;;;;;;13.40;99.90;;;;;;5071168;28;19985;-37
2023/05/10 02:36:28;;;;;;;;;;;13.50;99.90;;;;;;5070424;28;19940;-37
2023/05/10 02:38:55;;;;;;;;;;;13.40;99.90;;;;;;5067526;28;19935;-37
2023/05/10 02:41:23;;;;;;;;;;;13.40;99.90;;;;;;5068038;28;19947;-37
2023/05/10 02:43:50;;;;;;;;;;;13.30;99.90;;;;;;5069969;28;19946;-37
2023/05/10 02:46:16;;;;;;;;;;;13.40;99.90;;;;;;5072797;28;19996;-37
2023/05/10 02:48:43;;;;;;;;;;;13.40;99.90;;;;;;5070906;28;20412;-37
2023/05/10 02:51:10;;;;;;;;;;;13.40;99.90;;;;;;5074424;28;19948;-37
2023/05/10 02:53:37;;;;;;;;;;;13.40;99.90;;;;;;5074309;28;19946;-36
2023/05/10 02:56:06;;;;;;;;;;;13.40;99.90;;;;;;5074176;28;20455;-37
2023/05/10 02:58:35;;;;;;;;;;;13.40;99.90;;;;;;5073973;28;20318;-37
2023/05/10 03:01:01;;;;;;;;;;;13.40;99.90;;;;;;5073572;28;19947;-37
2023/05/10 03:03:28;;;;;;;;;;;13.40;99.90;;;;;;5073214;28;20399;-38
2023/05/10 03:05:55;;;;;;;;;;;13.30;99.90;;;;;;5072788;28;20440;-37
2023/05/10 03:08:23;;;;;;;;;;;13.30;99.90;;;;;;5066412;28;19982;-37
2023/05/10 03:10:52;;;;;;;;;;;13.30;99.90;;;;;;5072729;28;20491;-37
2023/05/10 03:13:23;;;;;;;;;;;13.30;99.90;;;;;;5071845;28;19972;-37
2023/05/10 03:15:52;;;;;;;;;;;13.30;99.90;;;;;;5074332;28;20423;-37
2023/05/10 03:18:22;;;;;;;;;;;13.30;99.90;;;;;;5054935;28;19942;-37
2023/05/10 03:20:49;;;;;;;;;;;13.30;99.90;;;;;;5068511;28;20203;-37
2023/05/10 03:23:20;;;;;;;;;;;13.30;99.90;;;;;;5073308;28;19938;-36
2023/05/10 03:25:46;;;;;;;;;;;13.30;99.90;;;;;;5073732;28;20009;-36
2023/05/10 03:28:13;;;;;;;;;;;13.20;99.90;;;;;;5073782;28;19948;-36
2023/05/10 03:30:40;;;;;;;;;;;13.20;99.90;;;;;;5080526;28;20007;-36
2023/05/10 03:33:08;;;;;;;;;;;13.20;99.90;;;;;;5093698;28;19949;-36
2023/05/10 03:35:35;;;;;;;;;;;13.20;99.90;;;;;;5075180;28;20422;-36
2023/05/10 03:38:01;;;;;;;;;;;13.20;99.90;;;;;;5075668;28;19985;-36
2023/05/10 03:40:31;;;;;;;;;;;13.20;99.90;;;;;;5093559;28;20294;-37
2023/05/10 03:42:57;;;;;;;;;;;13.20;99.90;;;;;;5094500;28;20416;-37
2023/05/10 03:45:24;;;;;;;;;;;13.10;99.90;;;;;;5092848;28;20497;-37
2023/05/10 03:47:51;;;;;;;;;;;13.10;99.90;;;;;;5063910;28;19984;-35
2023/05/10 03:50:19;;;;;;;;;;;13.10;99.90;;;;;;5089739;28;19956;-36
2023/05/10 03:52:46;;;;;;;;;;;13.10;99.90;;;;;;5073255;28;19939;-37
2023/05/10 03:55:13;;;;;;;;;;;13.10;99.90;;;;;;5093924;28;19944;-35
2023/05/10 03:57:39;;;;;;;;;;;13.10;99.90;;;;;;5091433;28;20361;-37
2023/05/10 04:00:06;;;;;;;;;;;13.10;99.90;;;;;;5092781;28;19945;-37
2023/05/10 04:02:33;;;;;;;;;;;13.10;99.90;;;;;;5091707;28;19948;-37
2023/05/10 04:05:00;;;;;;;;;;;13.10;99.90;;;;;;5091077;28;20043;-37
2023/05/10 04:07:28;;;;;;;;;;;13.10;99.90;;;;;;5074695;28;19936;-37
2023/05/10 04:09:54;;;;;;;;;;;13.10;99.90;;;;;;5069328;28;19940;-37
2023/05/10 04:12:21;;;;;;;;;;;13.10;99.90;;;;;;5088598;28;19936;-37
2023/05/10 04:14:48;;;;;;;;;;;13.10;99.90;;;;;;5075213;28;19992;-36
2023/05/10 04:17:14;;;;;;;;;;;13.10;99.90;;;;;;5076053;28;19989;-38
2023/05/10 04:19:41;;;;;;;;;;;13.10;99.90;;;;;;5074739;28;20036;-36
2023/05/10 04:22:11;;;;;;;;;;;13.10;99.90;;;;;;5086923;28;20063;-37
2023/05/10 04:24:39;;;;;;;;;;;13.10;99.90;;;;;;5071161;28;20041;-36
2023/05/10 04:27:05;;;;;;;;;;;13.10;99.90;;;;;;5091549;28;19959;-37
2023/05/10 04:29:32;;;;;;;;;;;13.10;99.90;;;;;;5074908;28;19986;-36
2023/05/10 04:31:59;;;;;;;;;;;13.10;99.90;;;;;;5092672;28;19961;-37
2023/05/10 04:34:25;;;;;;;;;;;13.10;99.90;;;;;;5091972;28;19949;-37
2023/05/10 04:36:52;;;;;;;;;;;13.10;99.90;;;;;;5089324;28;20034;-37
2023/05/10 04:39:19;;;;;;;;;;;13.10;99.90;;;;;;5072180;28;20375;-37
2023/05/10 04:41:46;;;;;;;;;;;13.10;99.90;;;;;;5093765;28;19941;-37
2023/05/10 04:44:13;;;;;;;;;;;13.10;99.90;;;;;;5074311;28;20033;-37
2023/05/10 04:46:40;;;;;;;;;;;13.00;99.90;;;;;;5091578;28;20043;-37
2023/05/10 04:49:06;;;;;;;;;;;13.10;99.90;;;;;;5090764;28;20002;-37
2023/05/10 04:51:33;;;;;;;;;;;13.10;99.90;;;;;;5093122;28;19940;-37
2023/05/10 04:54:00;;;;;;;;;;;13.00;99.90;;;;;;5073190;28;20435;-37
2023/05/10 04:56:26;;;;;;;;;;;13.10;99.90;;;;;;5072855;28;20388;-37
2023/05/10 04:58:54;;;;;;;;;;;13.00;99.90;;;;;;5092288;28;19993;-36
2023/05/10 05:01:22;;;;;;;;;;;13.00;99.90;;;;;;5066508;28;19966;-37
2023/05/10 05:03:49;;;;;;;;;;;13.00;99.90;;;;;;5069171;28;20361;-39
2023/05/10 05:06:16;;;;;;;;;;;13.00;99.90;;;;;;5074668;28;20053;-36
2023/05/10 05:08:42;;;;;;;;;;;13.10;99.90;;;;;;5071822;28;19936;-35
2023/05/10 05:11:09;;;;;;;;;;;13.10;99.90;;;;;;5089039;28;19988;-35
2023/05/10 05:13:36;;;;;;;;;;;13.10;99.90;;;;;;5071157;28;19946;-36
2023/05/10 05:16:04;;;;;;;;;;;13.10;99.90;;;;;;5071903;28;19994;-36
2023/05/10 05:18:31;;;;;;;;;;;13.10;99.90;;;;;;5070721;28;20419;-37
2023/05/10 05:20:57;;;;;;;;;;;13.10;99.90;;;;;;5088832;28;19980;-37
2023/05/10 05:23:25;;;;;;;;;;;13.10;99.90;;;;;;5068664;28;20026;-37
2023/05/10 05:25:52;;;;;;;;;;;13.10;99.90;;;;;;5074584;28;20275;-36
2023/05/10 05:28:19;;;;;;;;;;;13.10;99.90;;;;;;5091689;28;19951;-36
2023/05/10 05:30:45;;;;;;;;;;;13.10;99.90;;;;;;5090902;28;19962;-37
2023/05/10 05:33:13;;;;;;;;;;;13.10;99.90;;;;;;5073311;28;19948;-36
2023/05/10 05:35:40;;;;;;;;;;;13.10;99.90;;;;;;5073084;28;19952;-36
2023/05/10 05:38:07;;;;;;;;;;;13.10;99.90;;;;;;5073254;28;20033;-36
2023/05/10 05:40:33;;;;;;;;;;;13.10;99.90;;;;;;5091300;28;20002;-37
2023/05/10 05:43:00;;;;;;;;;;;13.10;99.90;;;;;;5089551;28;20021;-36
2023/05/10 05:45:27;;;;;;;;;;;13.10;99.90;;;;;;5071399;28;20515;-36
2023/05/10 05:47:53;;;;;;;;;;;13.10;99.90;;;;;;5091406;28;20010;-36
2023/05/10 05:50:21;;;;;;;;;;;13.00;99.90;;;;;;5092353;28;19964;-37
2023/05/10 05:52:48;;;;;;;;;;;13.10;99.90;;;;;;5092647;28;19982;-38
2023/05/10 05:55:15;;;;;;;;;;;13.00;99.90;;;;;;5092254;28;20402;-36
2023/05/10 05:57:41;;;;;;;;;;;13.00;99.90;;;;;;5092742;28;20381;-36
2023/05/10 06:00:11;;;;;;;;;;;13.00;99.90;;;;;;5074603;28;19989;-36
2023/05/10 06:02:41;;;;;;;;;;;13.00;99.90;;;;;;5091279;28;19999;-36
2023/05/10 06:05:08;;;;;;;;;;;13.00;99.90;;;;;;5092116;28;19998;-36
2023/05/10 06:07:36;;;;;;;;;;;13.10;99.90;;;;;;5068794;28;19954;-36
2023/05/10 06:10:02;;;;;;;;;;;13.00;99.90;;;;;;5054276;28;19942;-36
2023/05/10 06:12:29;;;;;;;;;;;13.00;99.90;;;;;;5054490;28;19996;-36
2023/05/10 06:14:56;;;;;;;;;;;13.00;99.90;;;;;;5054483;28;19993;-37
2023/05/10 06:17:22;;;;;;;;;;;13.00;99.90;;;;;;5072046;28;19989;-37
2023/05/10 06:19:49;;;;;;;;;;;13.10;99.90;;;;;;5077609;28;19944;-37
2023/05/10 06:22:16;;;;;;;;;;;13.10;99.90;;;;;;5078572;28;20015;-36
2023/05/10 06:24:44;;;;;;;;;;;13.10;99.90;;;;;;5078387;28;20546;-36
2023/05/10 06:27:11;;;;;;;;;;;13.10;99.90;;;;;;5096259;28;19964;-37
2023/05/10 06:29:37;;;;;;;;;;;13.10;99.90;;;;;;5096206;28;19946;-38
2023/05/10 06:32:04;;;;;;;;;;;13.10;99.90;;;;;;5078250;28;20011;-36
2023/05/10 06:34:31;;;;;;;;;;;13.10;99.90;;;;;;5095991;28;19969;-37
2023/05/10 06:36:58;;;;;;;;;;;13.20;99.90;;;;;;5078212;28;19957;-37
2023/05/10 06:39:25;;;;;;;;;;;13.20;99.90;;;;;;5078118;28;19941;-37
2023/05/10 06:41:54;;;;;;;;;;;13.20;99.90;;;;;;5094654;28;20353;-37
2023/05/10 06:44:21;;;;;;;;;;;13.30;99.90;;;;;;5095824;28;19953;-37
2023/05/10 06:46:47;;;;;;;;;;;13.30;99.90;;;;;;5077591;28;19924;-38
2023/05/10 06:49:14;;;;;;;;;;;13.30;99.90;;;;;;5095626;28;19944;-36
2023/05/10 06:51:41;;;;;;;;;;;13.30;99.90;;;;;;5077889;28;20040;-36
2023/05/10 06:54:07;;;;;;;;;;;13.30;99.90;;;;;;5078045;28;20361;-36
2023/05/10 06:56:34;;;;;;;;;;;13.40;99.90;;;;;;5095605;28;20029;-36
2023/05/10 06:59:02;;;;;;;;;;;13.40;99.90;;;;;;5077848;28;19969;-37
2023/05/10 07:01:29;;;;;;;;;;;13.50;99.90;;;;;;5093566;28;19985;-36
2023/05/10 07:03:55;;;;;;;;;;;13.50;99.90;;;;;;5076750;28;20454;-36
2023/05/10 07:06:22;;;;;;;;;;;13.50;99.90;;;;;;5077584;28;20008;-36
2023/05/10 07:08:49;;;;;;;;;;;13.60;99.90;;;;;;5061861;28;19994;-37
2023/05/10 07:11:15;;;;;;;;;;;13.60;99.90;;;;;;5057172;28;19942;-37
2023/05/10 07:13:44;;;;;;;;;;;13.60;99.90;;;;;;5074887;28;20073;-37
2023/05/10 07:16:12;;;;;;;;;;;13.60;99.90;;;;;;5074962;28;20385;-36
2023/05/10 07:18:38;;;;;;;;;;;13.60;99.90;;;;;;5076387;28;19942;-37
2023/05/10 07:21:05;;;;;;;;;;;13.60;99.90;;;;;;5095296;28;19944;-36
2023/05/10 07:23:32;;;;;;;;;;;13.60;99.90;;;;;;5076877;28;19947;-37
2023/05/10 07:25:59;;;;;;;;;;;13.60;99.90;;;;;;5077206;28;20325;-37
2023/05/10 07:28:25;;;;;;;;;;;13.70;99.90;;;;;;5095129;28;20425;-37
2023/05/10 07:30:52;;;;;;;;;;;13.70;99.90;;;;;;5076626;28;20012;-37
2023/05/10 07:33:20;;;;;;;;;;;13.70;99.90;;;;;;5093779;28;20252;-36
2023/05/10 07:35:47;;;;;;;;;;;13.70;99.90;;;;;;5077084;28;20396;-37
2023/05/10 07:38:13;;;;;;;;;;;13.70;99.90;;;;;;5094133;28;20011;-37
2023/05/10 07:40:40;;;;;;;;;;;13.70;99.90;;;;;;5094646;28;20012;-37
2023/05/10 07:43:07;;;;;;;;;;;13.70;99.90;;;;;;5076932;28;19948;-37
2023/05/10 07:45:33;;;;;;;;;;;13.60;99.90;;;;;;5094605;28;19940;-37
2023/05/10 07:48:00;;;;;;;;;;;13.70;99.90;;;;;;5094358;28;20006;-37
2023/05/10 07:50:28;;;;;;;;;;;13.70;99.90;;;;;;5076629;28;19979;-37
2023/05/10 07:52:55;;;;;;;;;;;13.70;99.90;;;;;;5076786;28;19946;-37
2023/05/10 07:55:22;;;;;;;;;;;13.70;99.90;;;;;;5092621;28;19938;-37
2023/05/10 07:57:48;;;;;;;;;;;13.70;99.90;;;;;;5093893;28;19941;-38
2023/05/10 08:00:17;;;;;;;;;;;13.80;99.90;;;;;;5094269;28;19990;-37
2023/05/10 08:02:44;;;;;;;;;;;13.80;99.90;;;;;;5076418;28;19943;-37
2023/05/10 08:05:10;;;;;;;;;;;13.80;99.90;;;;;;5094647;28;20043;-37
2023/05/10 08:07:38;;;;;;;;;;;13.90;99.90;;;;;;5070532;28;19955;-37
2023/05/10 08:10:06;;;;;;;;;;;13.90;99.90;;;;;;5056159;28;19995;-37
2023/05/10 08:12:32;;;;;;;;;;;13.90;99.90;;;;;;5056149;28;19943;-36
2023/05/10 08:14:59;;;;;;;;;;;13.90;99.90;;;;;;5073786;28;19999;-37
2023/05/10 08:17:26;;;;;;;;;;;14.00;99.90;;;;;;5072769;28;19950;-37
2023/05/10 08:19:53;;;;;;;;;;;14.00;99.90;;;;;;5094161;28;19940;-36
2023/05/10 08:22:19;;;;;;;;;;;14.10;99.90;;;;;;5076409;28;20010;-35
2023/05/10 08:24:47;;;;;;;;;;;14.20;99.90;;;;;;5076122;28;20300;-36
2023/05/10 08:27:14;;;;;;;;;;;14.20;99.90;;;;;;5075930;28;20453;-36
2023/05/10 08:29:40;;;;;;;;;;;14.20;99.90;;;;;;5093910;28;20418;-36
2023/05/10 08:32:07;;;;;;;;;;;14.20;99.90;;;;;;5075502;28;19975;-36
2023/05/10 08:34:34;;;;;;;;;;;14.20;99.90;;;;;;5074880;28;19939;-36
2023/05/10 08:37:00;;;;;;;;;;;14.30;99.90;;;;;;5093745;28;19945;-36
2023/05/10 08:39:27;;;;;;;;;;;14.40;99.90;;;;;;5075777;28;19947;-36
2023/05/10 08:41:55;;;;;;;;;;;14.40;99.90;;;;;;5075613;28;19942;-36
2023/05/10 08:44:22;;;;;;;;;;;14.50;99.90;;;;;;5093084;28;19942;-36
2023/05/10 08:46:49;;;;;;;;;;;14.50;99.90;;;;;;5093203;28;20004;-36
2023/05/10 08:49:17;;;;;;;;;;;14.50;99.90;;;;;;5075479;28;19946;-36
2023/05/10 08:51:45;;;;;;;;;;;14.50;99.90;;;;;;5093575;28;19953;-36
2023/05/10 08:54:12;;;;;;;;;;;14.60;99.90;;;;;;5091374;28;20403;-36
2023/05/10 08:56:38;;;;;;;;;;;14.60;99.90;;;;;;5075564;28;19947;-36
2023/05/10 08:59:06;;;;;;;;;;;14.60;99.90;;;;;;5075391;28;19996;-36
2023/05/10 09:01:33;;;;;;;;;;;14.60;99.90;;;;;;5092368;28;20389;-36
2023/05/10 09:04:00;;;;;;;;;;;14.50;99.90;;;;;;5075473;28;19940;-36
2023/05/10 09:06:26;;;;;;;;;;;14.50;99.90;;;;;;5075353;28;19942;-36
2023/05/10 09:08:53;;;;;;;;;;;14.50;99.90;;;;;;5076565;28;20319;-36
2023/05/10 09:11:20;;;;;;;;;;;14.50;99.90;;;;;;5076577;28;19937;-36
2023/05/10 09:13:47;;;;;;;;;;;14.50;99.90;;;;;;5075196;28;19938;-36
2023/05/10 09:16:14;;;;;;;;;;;14.50;99.90;;;;;;5092820;28;19943;-36
2023/05/10 09:18:41;;;;;;;;;;;14.50;99.90;;;;;;5075435;28;19944;-36
2023/05/10 09:21:08;;;;;;;;;;;14.50;99.90;;;;;;5093021;28;20347;-36
2023/05/10 09:23:34;;;;;;;;;;;14.50;99.90;;;;;;5093077;28;19984;-36
2023/05/10 09:26:04;;;;;;;;;;;14.50;99.90;;;;;;5074315;28;20311;-37
2023/05/10 09:28:32;;;;;;;;;;;14.50;99.90;;;;;;5092810;28;20027;-36
2023/05/10 09:30:58;;;;;;;;;;;14.50;99.90;;;;;;5091551;28;19992;-37
2023/05/10 09:33:27;;;;;;;;;;;14.60;99.90;;;;;;5092905;28;20443;-36
2023/05/10 09:35:53;;;;;;;;;;;14.60;99.90;;;;;;5092774;28;20357;-37
2023/05/10 09:38:20;;;;;;;;;;;14.70;99.90;;;;;;5092497;28;20393;-37
2023/05/10 09:40:54;;;;;;;;;;;14.70;99.90;;;;;;5093076;28;19949;-37
2023/05/10 09:43:20;;;;;;;;;;;14.80;99.90;;;;;;5073154;28;19987;-36
2023/05/10 09:45:48;;;;;;;;;;;14.80;99.90;;;;;;5074230;28;19975;-37
2023/05/10 09:48:15;;;;;;;;;;;14.80;99.90;;;;;;5074519;28;20018;-37
2023/05/10 09:50:43;;;;;;;;;;;14.90;99.90;;;;;;5092707;28;19943;-37
2023/05/10 09:53:09;;;;;;;;;;;14.90;99.90;;;;;;5074757;28;20401;-38
2023/05/10 09:55:40;;;;;;;;;;;15.00;99.90;;;;;;5091716;28;19999;-38
2023/05/10 09:58:10;;;;;;;;;;;14.90;99.90;;;;;;5092230;28;19997;-38
2023/05/10 10:00:36;;;;;;;;;;;15.00;99.90;;;;;;5073577;28;19973;-37
2023/05/10 10:03:04;;;;;;;;;;;15.00;99.90;;;;;;5074390;28;20026;-37
2023/05/10 10:05:30;;;;;;;;;;;15.10;99.90;;;;;;5092326;28;19991;-38
2023/05/10 10:07:59;;;;;;;;;;;15.10;99.90;;;;;;5092308;28;19958;-38
2023/05/10 10:10:25;;;;;;;;;;;15.10;99.90;;;;;;5092173;28;20359;-37
2023/05/10 10:12:52;;;;;;;;;;;15.10;99.90;;;;;;5092373;28;19995;-37
2023/05/10 10:15:19;;;;;;;;;;;15.20;99.90;;;;;;5092719;28;19950;-37
2023/05/10 10:17:45;;;;;;;;;;;15.20;99.90;;;;;;5073705;28;19947;-38
2023/05/10 10:20:12;;;;;;;;;;;15.40;99.90;;;;;;5092268;28;19967;-38
2023/05/10 10:22:39;;;;;;;;;;;15.40;99.90;;;;;;5092454;28;19990;-38
2023/05/10 10:25:08;;;;;;;;;;;15.40;99.90;;;;;;5074379;28;19985;-38
2023/05/10 10:27:37;;;;;;;;;;;15.50;99.90;;;;;;5074226;28;20531;-38
2023/05/10 10:30:05;;;;;;;;;;;15.50;99.90;;;;;;5092312;28;19998;-38
2023/05/10 10:32:34;;;;;;;;;;;15.50;99.90;;;;;;5092514;28;20010;-37
2023/05/10 10:35:00;;;;;;;;;;;15.50;99.90;;;;;;5073396;28;20061;-38
2023/05/10 10:37:42;;;;;;;;;;;15.50;99.90;;;;;;5073784;28;20041;-38
2023/05/10 10:43:16;;;;;;;;;;;15.60;99.90;;;;;;5110271;27;19938;-39
2023/05/10 10:45:44;;;;;;;;;;;15.70;99.90;;;;;;5108219;28;20166;-38
2023/05/10 10:48:20;;;;;;;;;;;15.70;99.90;;;;;;5109323;28;19941;-39
2023/05/10 10:50:47;;;;;;;;;;;15.70;99.90;;;;;;5108394;28;19940;-38
2023/05/10 10:53:14;;;;;;;;;;;15.70;99.90;;;;;;5108922;28;19953;-39
2023/05/10 10:55:46;;;;;;;;;;;15.70;99.90;;;;;;5099701;28;19977;-38
2023/05/10 10:58:13;;;;;;;;;;;15.70;99.90;;;;;;5107847;28;20429;-39
2023/05/10 11:00:40;;;;;;;;;;;15.70;99.90;;;;;;5102888;28;20029;-38
2023/05/10 11:03:10;;;;;;;;;;;15.80;99.90;;;;;;5089044;28;19952;-38
2023/05/10 11:05:37;;;;;;;;;;;15.80;99.90;;;;;;5101327;28;19944;-39
2023/05/10 11:08:08;;;;;;;;;;;15.80;99.90;;;;;;5098262;28;19995;-38
2023/05/10 11:10:34;;;;;;;;;;;15.80;99.90;;;;;;5099828;28;20434;-39
2023/05/10 11:13:01;;;;;;;;;;;15.80;99.90;;;;;;5092297;28;20369;-39
2023/05/10 11:15:31;;;;;;;;;;;15.80;99.90;;;;;;5089267;28;20387;-38
2023/05/10 11:17:58;;;;;;;;;;;15.80;99.90;;;;;;5123461;27;19952;-39
2023/05/10 11:20:32;;;;;;;;;;;15.80;99.90;;;;;;5115627;28;19941;-38
2023/05/10 11:22:59;;;;;;;;;;;15.70;99.90;;;;;;5101805;28;19964;-38
2023/05/10 11:25:27;;;;;;;;;;;15.70;99.90;;;;;;5109698;28;20362;-39
2023/05/10 11:27:53;;;;;;;;;;;15.70;99.90;;;;;;5109421;28;19940;-39
2023/05/10 11:30:20;;;;;;;;;;;15.60;99.90;;;;;;5108514;28;19943;-39
2023/05/10 11:32:47;;;;;;;;;;;15.70;99.90;;;;;;5108655;28;19971;-38
2023/05/10 11:35:13;;;;;;;;;;;15.70;99.90;;;;;;5091341;28;19992;-39
2023/05/10 11:37:43;;;;;;;;;;;15.70;99.90;;;;;;5087856;28;19945;-39
2023/05/10 11:40:10;;;;;;;;;;;15.80;99.90;;;;;;5088993;28;19948;-39
2023/05/10 11:42:37;;;;;;;;;;;15.80;99.90;;;;;;5087333;28;19967;-39
2023/05/10 11:45:04;;;;;;;;;;;15.90;99.90;;;;;;5087359;28;19963;-39
2023/05/10 11:47:31;;;;;;;;;;;15.90;99.90;;;;;;5087507;28;20470;-39
2023/05/10 11:49:58;;;;;;;;;;;16.00;99.90;;;;;;5087787;28;19939;-39
2023/05/10 11:52:24;;;;;;;;;;;16.00;99.90;;;;;;5095025;28;20351;-39
2023/05/10 11:54:55;;;;;;;;;;;16.10;99.90;;;;;;5094251;28;20036;-39
2023/05/10 11:57:26;;;;;;;;;;;16.20;99.90;;;;;;5094330;28;20383;-39
2023/05/10 11:59:54;;;;;;;;;;;16.30;99.90;;;;;;5094142;28;20001;-39
2023/05/10 12:02:20;;;;;;;;;;;16.30;99.90;;;;;;5095513;28;19962;-39
2023/05/10 12:04:47;;;;;;;;;;;16.30;99.90;;;;;;5094385;28;20049;-38
2023/05/10 12:07:13;;;;;;;;;;;16.30;99.90;;;;;;5095265;28;19991;-39
2023/05/10 12:09:43;;;;;;;;;;;16.30;99.90;;;;;;5093914;28;19997;-39
2023/05/10 12:12:11;;;;;;;;;;;16.30;99.90;;;;;;5092608;28;19940;-39
2023/05/10 12:14:37;;;;;;;;;;;16.30;99.90;;;;;;5094883;28;20002;-39
2023/05/10 12:17:04;;;;;;;;;;;16.30;99.90;;;;;;5094054;28;19964;-39
2023/05/10 12:19:37;;;;;;;;;;;16.20;99.90;;;;;;5095048;28;19954;-38
2023/05/10 12:22:05;;;;;;;;;;;16.30;99.90;;;;;;5094891;28;19970;-38
2023/05/10 12:24:32;;;;;;;;;;;16.20;99.90;;;;;;5094993;28;20384;-38
2023/05/10 12:26:58;;;;;;;;;;;16.10;99.90;;;;;;5127818;27;19940;-39
2023/05/10 12:29:26;;;;;;;;;;;16.10;99.90;;;;;;5093721;28;19984;-38
2023/05/10 12:31:53;;;;;;;;;;;16.20;99.90;;;;;;5078153;28;19974;-38
2023/05/10 12:34:26;;;;;;;;;;;16.20;99.90;;;;;;5074609;28;19998;-39
2023/05/10 12:36:53;;;;;;;;;;;16.20;99.90;;;;;;5074420;28;20735;-39
2023/05/10 12:39:19;;;;;;;;;;;16.30;99.90;;;;;;5074481;28;20360;-38
2023/05/10 12:41:46;;;;;;;;;;;16.30;99.90;;;;;;5084575;28;20369;-38
2023/05/10 12:44:13;;;;;;;;;;;16.20;99.90;;;;;;5076099;28;19941;-38
2023/05/10 12:46:41;;;;;;;;;;;16.30;99.90;;;;;;5076770;28;19986;-37
2023/05/10 12:49:07;;;;;;;;;;;16.20;99.90;;;;;;5096107;27;20462;-38
2023/05/10 12:51:34;;;;;;;;;;;16.30;99.90;;;;;;5077820;28;20013;-38
2023/05/10 12:54:01;;;;;;;;;;;16.30;99.90;;;;;;5094402;28;19938;-38
2023/05/10 12:56:27;;;;;;;;;;;16.30;99.90;;;;;;5110512;28;19949;-38
2023/05/10 12:58:54;;;;;;;;;;;16.20;99.90;;;;;;5110504;28;19982;-39
2023/05/10 13:01:20;;;;;;;;;;;16.20;99.90;;;;;;5095001;28;20054;-38
2023/05/10 13:03:48;;;;;;;;;;;16.10;99.90;;;;;;5094107;28;20033;-38
2023/05/10 13:06:15;;;;;;;;;;;16.00;99.90;;;;;;5075662;28;19985;-36
2023/05/10 13:08:42;;;;;;;;;;;15.90;99.90;;;;;;5094001;28;19938;-36
2023/05/10 13:11:08;;;;;;;;;;;15.80;99.90;;;;;;5092752;28;19944;-35
2023/05/10 13:13:35;;;;;;;;;;;15.80;99.90;;;;;;5091083;28;19985;-36
2023/05/10 13:16:02;;;;;;;;;;;15.70;99.90;;;;;;5087957;28;19940;-36
2023/05/10 13:18:28;;;;;;;;;;;15.70;99.90;;;;;;5114217;28;19953;-36
2023/05/10 13:20:56;;;;;;;;;;;15.60;99.90;;;;;;5093378;28;19941;-36
2023/05/10 13:23:23;;;;;;;;;;;15.60;99.90;;;;;;5112334;28;20055;-36
2023/05/10 13:25:49;;;;;;;;;;;15.60;99.90;;;;;;5111700;28;20037;-36
2023/05/10 13:28:16;;;;;;;;;;;15.60;99.90;;;;;;5102740;27;19940;-35
2023/05/10 13:30:43;;;;;;;;;;;15.70;99.90;;;;;;5109285;28;19996;-36
2023/05/10 13:33:09;;;;;;;;;;;15.70;99.90;;;;;;5093743;28;20361;-36
2023/05/10 13:35:36;;;;;;;;;;;15.80;99.90;;;;;;5075705;28;20405;-36
2023/05/10 13:38:07;;;;;;;;;;;15.80;99.90;;;;;;5075647;28;20030;-36
2023/05/10 13:40:34;;;;;;;;;;;15.80;99.90;;;;;;5093447;28;20314;-36
2023/05/10 13:43:00;;;;;;;;;;;15.80;99.90;;;;;;5089709;28;19960;-36
2023/05/10 13:45:27;;;;;;;;;;;15.80;99.90;;;;;;5111815;27;19949;-35
2023/05/10 13:47:54;;;;;;;;;;;15.90;99.90;;;;;;5084221;28;19993;-35
2023/05/10 13:50:21;;;;;;;;;;;16.00;99.90;;;;;;5095551;28;20407;-36
2023/05/10 13:52:47;;;;;;;;;;;16.10;99.90;;;;;;5095280;28;20031;-36
2023/05/10 13:55:15;;;;;;;;;;;16.10;99.90;;;;;;5093554;28;20394;-36
2023/05/10 13:57:42;;;;;;;;;;;16.20;99.90;;;;;;5088959;28;19987;-36
2023/05/10 14:00:10;;;;;;;;;;;16.30;99.90;;;;;;5111533;28;20509;-36
2023/05/10 14:02:36;;;;;;;;;;;16.30;99.90;;;;;;5092664;28;19951;-36
2023/05/10 14:05:03;;;;;;;;;;;16.30;99.90;;;;;;5094673;28;19980;-36
2023/05/10 14:07:30;;;;;;;;;;;16.30;99.90;;;;;;5105385;27;19943;-36
2023/05/10 14:09:57;;;;;;;;;;;16.30;99.90;;;;;;5099759;27;20063;-35
2023/05/10 14:12:25;;;;;;;;;;;16.30;99.90;;;;;;5108240;28;19944;-36
2023/05/10 14:14:52;;;;;;;;;;;16.20;99.90;;;;;;5105759;28;19944;-36
2023/05/10 14:17:19;;;;;;;;;;;16.20;99.90;;;;;;5091203;28;19947;-37
2023/05/10 14:19:45;;;;;;;;;;;16.10;99.90;;;;;;5093347;28;19957;-37